createdAt,value
2024-03-01T04:15:26.839Z,998.23
2024-03-01T04:16:40.456Z,998.18
2024-03-01T04:17:27.061Z,998.25
2024-03-01T04:18:27.211Z,998.18
2024-03-01T04:19:27.395Z,998.19
2024-03-01T04:20:27.414Z,998.19
2024-03-01T04:21:28.498Z,998.13
2024-03-01T04:22:27.854Z,998.18
2024-03-01T04:23:27.803Z,998.16
2024-03-01T04:24:27.909Z,998.12
2024-03-01T04:25:28.175Z,998.11
2024-03-01T04:26:28.215Z,998.15
2024-03-01T04:27:28.308Z,998.15
2024-03-01T04:28:28.455Z,998.17
2024-03-01T04:29:28.547Z,998.13
2024-03-01T04:30:28.679Z,998.16
2024-03-01T04:31:34.562Z,998.15
2024-03-01T04:32:28.976Z,998.14
2024-03-01T04:33:29.024Z,998.16
2024-03-01T04:34:29.189Z,998.13
2024-03-01T04:35:29.267Z,998.11
2024-03-01T04:36:29.452Z,998.13
2024-03-01T04:37:29.595Z,998.12
2024-03-01T04:38:29.671Z,998.07
2024-03-01T04:39:29.763Z,998.08
2024-03-01T04:40:29.964Z,998.08
2024-03-01T04:41:30.078Z,998.04
2024-03-01T04:42:30.194Z,998.00
2024-03-01T04:43:30.465Z,998.07
2024-03-01T04:44:30.425Z,998.06
2024-03-01T04:45:30.579Z,998.02
2024-03-01T04:46:30.737Z,997.99
2024-03-01T04:47:30.879Z,997.98
2024-03-01T04:48:31.016Z,998.05
2024-03-01T04:49:31.152Z,998.04
2024-03-01T04:50:31.237Z,998.02
2024-03-01T04:51:31.304Z,998.06
2024-03-01T04:52:31.469Z,998.07
2024-03-01T04:53:31.585Z,998.12
2024-03-01T04:54:31.763Z,998.05
2024-03-01T04:55:31.987Z,998.05
2024-03-01T04:56:32.026Z,998.06
2024-03-01T04:57:32.149Z,998.08
2024-03-01T04:58:32.389Z,998.06
2024-03-01T04:59:32.471Z,998.10
2024-03-01T05:00:32.598Z,998.03
2024-03-01T05:01:32.752Z,998.06
2024-03-01T05:02:32.768Z,998.10
2024-03-01T05:03:33.022Z,998.08
2024-03-01T05:04:33.080Z,998.08
2024-03-01T05:05:33.171Z,998.06
2024-03-01T05:06:33.314Z,998.09
2024-03-01T05:07:33.573Z,998.05
2024-03-01T05:08:33.579Z,998.06
2024-03-01T05:09:33.671Z,998.04
2024-03-01T05:10:33.953Z,998.02
2024-03-01T05:11:33.995Z,998.11
2024-03-01T05:12:34.148Z,998.10
2024-03-01T05:13:34.364Z,998.10
2024-03-01T05:14:34.390Z,998.12
2024-03-01T05:15:34.640Z,998.11
2024-03-01T05:16:34.748Z,998.06
2024-03-01T05:17:34.785Z,998.10
2024-03-01T05:18:34.889Z,998.09
2024-03-01T05:19:35.019Z,998.10
2024-03-01T05:20:35.116Z,998.09
2024-03-01T05:21:35.258Z,998.12
2024-03-01T05:22:35.386Z,998.18
2024-03-01T05:23:35.557Z,998.14
2024-03-01T05:24:35.611Z,998.17
2024-03-01T05:25:35.931Z,998.15
2024-03-01T05:26:35.948Z,998.14
2024-03-01T05:27:36.052Z,998.20
2024-03-01T05:28:36.313Z,998.13
2024-03-01T05:29:36.334Z,998.19
2024-03-01T05:30:46.682Z,998.19
2024-03-01T05:31:37.712Z,998.23
2024-03-01T05:32:36.764Z,998.21
2024-03-01T05:33:36.895Z,998.23
2024-03-01T05:34:37.127Z,998.27
2024-03-01T05:35:37.254Z,998.26
2024-03-01T05:36:37.310Z,998.25
2024-03-01T05:37:37.473Z,998.26
2024-03-01T05:38:37.574Z,998.27
2024-03-01T05:39:37.712Z,998.23
2024-03-01T05:40:45.868Z,998.28
2024-03-01T05:41:39.974Z,998.28
2024-03-01T05:42:38.081Z,998.27
2024-03-01T05:43:38.304Z,998.28
2024-03-01T05:44:38.409Z,998.32
2024-03-01T05:45:38.487Z,998.29
2024-03-01T05:46:39.682Z,998.34
2024-03-01T05:47:38.817Z,998.38
2024-03-01T05:48:38.929Z,998.37
2024-03-01T05:49:39.018Z,998.34
2024-03-01T05:50:39.143Z,998.29
2024-03-01T05:51:40.308Z,998.39
2024-03-01T05:52:39.443Z,998.34
2024-03-01T05:53:39.577Z,998.37
2024-03-01T05:54:40.643Z,998.36
2024-03-01T05:55:39.859Z,998.34
2024-03-01T05:56:39.952Z,998.37
2024-03-01T05:57:40.067Z,998.36
2024-03-01T05:58:40.277Z,998.36
2024-03-01T05:59:40.293Z,998.40
2024-03-01T06:00:40.392Z,998.37
2024-03-01T06:01:41.606Z,998.38
2024-03-01T06:02:40.669Z,998.39
2024-03-01T06:03:40.820Z,998.38
2024-03-01T06:04:40.973Z,998.38
2024-03-01T06:05:41.031Z,998.36
2024-03-01T06:06:41.225Z,998.38
2024-03-01T06:07:41.408Z,998.44
2024-03-01T06:08:42.477Z,998.49
2024-03-01T06:09:41.609Z,998.49
2024-03-01T06:10:41.833Z,998.50
2024-03-01T06:12:59.278Z,998.48
2024-03-01T06:13:57.557Z,998.44
2024-03-01T06:14:57.719Z,998.48
2024-03-01T06:15:57.921Z,998.44
2024-03-01T06:16:58.003Z,998.49
2024-03-01T06:17:58.243Z,998.52
2024-03-01T06:19:01.810Z,998.49
2024-03-01T06:19:58.372Z,998.51
2024-03-01T06:20:58.484Z,998.53
2024-03-01T06:21:58.598Z,998.47
2024-03-01T06:22:58.727Z,998.50
2024-03-01T06:23:58.824Z,998.52
2024-03-01T06:24:59.099Z,998.52
2024-03-01T06:25:59.238Z,998.51
2024-03-01T06:26:59.236Z,998.53
2024-03-01T06:27:59.376Z,998.50
2024-03-01T06:28:59.463Z,998.54
2024-03-01T06:29:59.605Z,998.56
2024-03-01T06:30:59.800Z,998.59
2024-03-01T06:31:59.997Z,998.59
2024-03-01T06:33:00.039Z,998.53
2024-03-01T06:34:00.168Z,998.52
2024-03-01T06:35:00.248Z,998.49
2024-03-01T06:36:00.384Z,998.56
2024-03-01T06:37:00.693Z,998.53
2024-03-01T06:38:01.717Z,998.56
2024-03-01T06:39:00.785Z,998.53
2024-03-01T06:40:00.931Z,998.51
2024-03-01T06:41:01.002Z,998.49
2024-03-01T06:42:02.246Z,998.52
2024-03-01T06:43:01.230Z,998.49
2024-03-01T06:44:01.382Z,998.53
2024-03-01T06:45:01.469Z,998.48
2024-03-01T06:46:02.000Z,998.52
2024-03-01T06:47:04.226Z,998.54
2024-03-01T06:48:02.052Z,998.54
2024-03-01T06:49:02.167Z,998.59
2024-03-01T06:50:02.292Z,998.58
2024-03-01T06:51:02.442Z,998.58
2024-03-01T06:52:02.428Z,998.58
2024-03-01T06:53:02.790Z,998.59
2024-03-01T06:54:02.868Z,998.59
2024-03-01T06:55:03.092Z,998.62
2024-03-01T06:56:02.883Z,998.57
2024-03-01T06:57:03.278Z,998.57
2024-03-01T06:58:04.121Z,998.55
2024-03-01T06:59:03.907Z,998.56
2024-03-01T07:00:03.704Z,998.55
2024-03-01T07:01:06.297Z,998.61
2024-03-01T07:02:03.906Z,998.56
2024-03-01T07:03:04.016Z,998.52
2024-03-01T07:04:04.409Z,998.54
2024-03-01T07:05:04.123Z,998.53
2024-03-01T07:06:04.282Z,998.53
2024-03-01T07:07:04.424Z,998.59
2024-03-01T07:08:04.621Z,998.57
2024-03-01T07:09:04.642Z,998.56
2024-03-01T07:10:04.813Z,998.54
2024-03-01T07:11:05.092Z,998.52
2024-03-01T07:12:05.052Z,998.57
2024-03-01T07:13:06.141Z,998.53
2024-03-01T07:14:05.439Z,998.55
2024-03-01T07:15:05.432Z,998.57
2024-03-01T07:16:05.683Z,998.64
2024-03-01T07:17:05.774Z,998.59
2024-03-01T07:18:05.857Z,998.61
2024-03-01T07:19:06.117Z,998.66
2024-03-01T07:20:06.116Z,998.61
2024-03-01T07:21:06.228Z,998.63
2024-03-01T07:22:06.464Z,998.67
2024-03-01T07:23:08.844Z,998.66
2024-03-01T07:24:06.584Z,998.68
2024-03-01T07:25:06.757Z,998.68
2024-03-01T07:26:07.525Z,998.67
2024-03-01T07:27:07.060Z,998.67
2024-03-01T07:28:07.192Z,998.68
2024-03-01T07:29:08.162Z,998.73
2024-03-01T07:30:07.423Z,998.71
2024-03-01T07:31:07.613Z,998.67
2024-03-01T07:32:07.695Z,998.68
2024-03-01T07:33:08.954Z,998.72
2024-03-01T07:34:08.131Z,998.70
2024-03-01T07:35:08.128Z,998.67
2024-03-01T07:36:08.165Z,998.70
2024-03-01T07:37:08.336Z,998.65
2024-03-01T07:38:08.453Z,998.65
2024-03-01T07:39:08.495Z,998.66
2024-03-01T07:40:09.929Z,998.66
2024-03-01T07:41:10.864Z,998.73
2024-03-01T07:42:08.943Z,998.74
2024-03-01T07:43:09.369Z,998.73
2024-03-01T07:44:09.338Z,998.70
2024-03-01T07:45:09.422Z,998.74
2024-03-01T07:46:09.761Z,998.75
2024-03-01T07:47:09.673Z,998.74
2024-03-01T07:52:03.978Z,998.79
2024-03-01T07:53:15.201Z,998.78
2024-03-01T07:54:12.131Z,998.81
2024-03-01T07:55:13.289Z,998.74
2024-03-01T07:56:13.743Z,998.76
2024-03-01T07:57:12.299Z,998.80
2024-03-01T07:58:15.204Z,998.86
2024-03-01T07:59:14.190Z,998.81
2024-03-01T08:00:13.430Z,998.77
2024-03-01T08:01:12.423Z,998.75
2024-03-01T08:02:14.525Z,998.86
2024-03-01T08:03:12.597Z,998.73
2024-03-01T08:04:14.574Z,998.82
2024-03-01T08:08:01.849Z,998.78
2024-03-01T08:09:13.451Z,998.83
2024-03-01T08:10:12.318Z,998.79
2024-03-01T08:11:12.653Z,998.83
2024-03-01T08:12:12.779Z,998.75
2024-03-01T08:13:07.981Z,998.82
2024-03-01T08:14:15.888Z,998.81
2024-03-01T08:15:14.055Z,998.82
2024-03-01T08:16:13.320Z,998.79
2024-03-01T08:17:14.338Z,998.77
2024-03-01T08:18:14.283Z,998.78
2024-03-01T08:19:13.496Z,998.78
2024-03-01T08:20:17.242Z,998.73
2024-03-01T08:21:14.561Z,998.78
2024-03-01T08:22:13.987Z,998.77
2024-03-01T08:23:15.837Z,998.78
2024-03-01T08:24:17.108Z,998.85
2024-03-01T08:25:15.935Z,998.84
2024-03-01T08:26:17.983Z,998.85
2024-03-01T08:27:16.012Z,998.84
2024-03-01T08:28:16.236Z,998.88
2024-03-01T08:29:16.913Z,998.91
2024-03-01T08:30:11.374Z,998.89
2024-03-01T08:31:03.425Z,998.94
2024-03-01T08:32:07.367Z,998.96
2024-03-01T08:33:04.000Z,998.99
2024-03-01T08:34:04.451Z,999.01
2024-03-01T08:35:04.938Z,998.91
2024-03-01T08:36:04.562Z,998.94
2024-03-01T08:37:04.113Z,998.93
2024-03-01T08:38:05.197Z,998.90
2024-03-01T08:39:04.669Z,998.90
2024-03-01T08:40:04.820Z,998.89
2024-03-01T08:41:04.505Z,998.92
2024-03-01T08:42:06.018Z,998.91
2024-03-01T08:43:08.848Z,998.94
2024-03-01T08:44:05.330Z,998.97
2024-03-01T08:45:05.043Z,998.95
2024-03-01T08:46:05.458Z,998.94
2024-03-01T08:47:05.367Z,998.95
2024-03-01T08:48:06.162Z,998.92
2024-03-01T08:49:07.050Z,998.90
2024-03-01T08:50:06.001Z,998.87
2024-03-01T08:51:06.876Z,998.88
2024-03-01T08:52:06.896Z,998.89
2024-03-01T08:53:07.022Z,998.82
2024-03-01T08:54:06.224Z,998.87
2024-03-01T08:55:06.796Z,998.87
2024-03-01T08:56:06.519Z,998.89
2024-03-01T08:57:07.632Z,998.90
2024-03-01T08:58:07.685Z,998.93
2024-03-01T08:59:06.836Z,998.92
2024-03-01T09:00:08.863Z,998.93
2024-03-01T09:01:08.082Z,998.92
2024-03-01T09:02:07.382Z,998.91
2024-03-01T09:03:08.265Z,998.97
2024-03-01T09:04:11.238Z,998.97
2024-03-01T09:05:07.684Z,998.88
2024-03-01T09:06:07.592Z,998.91
2024-03-01T09:07:07.998Z,998.90
2024-03-01T09:08:08.051Z,998.97
2024-03-01T09:09:07.978Z,999.00
2024-03-01T09:10:08.075Z,999.00
2024-03-01T09:11:08.228Z,999.04
2024-03-01T09:12:08.341Z,998.99
2024-03-01T09:13:10.818Z,998.99
2024-03-01T09:14:10.408Z,999.07
2024-03-01T09:15:08.711Z,999.09
2024-03-01T09:16:08.963Z,999.09
2024-03-01T09:17:09.175Z,999.09
2024-03-01T09:18:10.345Z,999.12
2024-03-01T09:19:09.367Z,999.11
2024-03-01T09:20:10.463Z,999.08
2024-03-01T09:21:09.522Z,999.11
2024-03-01T09:22:09.795Z,999.12
2024-03-01T09:23:09.841Z,999.10
2024-03-01T09:24:10.084Z,999.10
2024-03-01T09:25:11.054Z,999.15
2024-03-01T09:26:14.700Z,999.11
2024-03-01T09:27:11.747Z,999.13
2024-03-01T09:28:11.953Z,999.16
2024-03-01T09:29:13.527Z,999.18
2024-03-01T09:30:11.879Z,999.18
2024-03-01T09:31:10.977Z,999.19
2024-03-01T09:32:11.960Z,999.16
2024-03-01T09:33:12.179Z,999.18
2024-03-01T09:34:11.483Z,999.17
2024-03-01T09:35:11.793Z,999.15
2024-03-01T09:36:12.946Z,999.15
2024-03-01T09:37:11.926Z,999.23
2024-03-01T09:38:13.018Z,999.26
2024-03-01T09:39:11.958Z,999.29
2024-03-01T09:40:13.410Z,999.29
2024-03-01T09:41:14.150Z,999.35
2024-03-01T09:42:13.476Z,999.34
2024-03-01T09:43:13.577Z,999.31
2024-03-01T09:44:14.412Z,999.39
2024-03-01T09:45:13.605Z,999.39
2024-03-01T09:46:13.067Z,999.40
2024-03-01T09:47:14.876Z,999.48
2024-03-01T09:48:13.268Z,999.38
2024-03-01T09:49:13.509Z,999.48
2024-03-01T09:50:17.664Z,999.43
2024-03-01T09:51:14.784Z,999.43
2024-03-01T09:52:17.235Z,999.38
2024-03-01T09:53:14.998Z,999.41
2024-03-01T09:54:14.875Z,999.46
2024-03-01T09:55:15.206Z,999.45
2024-03-01T09:56:14.828Z,999.49
2024-03-01T09:57:15.469Z,999.47
2024-03-01T09:58:15.586Z,999.53
2024-03-01T09:59:15.243Z,999.51
2024-03-01T10:00:16.555Z,999.46
2024-03-01T10:01:14.882Z,999.46
2024-03-01T10:05:08.797Z,999.47
2024-03-01T10:06:21.809Z,999.52
2024-03-01T10:07:16.974Z,999.52
2024-03-01T10:08:08.966Z,999.53
2024-03-01T10:09:09.300Z,999.53
2024-03-01T10:10:09.354Z,999.52
2024-03-01T10:11:09.350Z,999.48
2024-03-01T10:12:09.512Z,999.49
2024-03-01T10:13:10.724Z,999.47
2024-03-01T10:14:10.791Z,999.48
2024-03-01T10:15:11.712Z,999.50
2024-03-01T10:16:11.598Z,999.47
2024-03-01T10:17:11.746Z,999.50
2024-03-01T10:18:10.287Z,999.46
2024-03-01T10:30:11.763Z,999.63
2024-03-01T10:31:25.630Z,999.63
2024-03-01T10:32:26.076Z,999.67
2024-03-01T10:33:24.499Z,999.72
2024-03-01T10:34:25.466Z,999.69
2024-03-01T10:38:20.029Z,999.77
2024-03-01T10:42:17.196Z,999.86
2024-03-01T10:46:21.847Z,999.95
2024-03-01T10:50:22.516Z,1000.00
2024-03-01T10:54:22.492Z,1000.00
2024-03-01T10:58:19.282Z,1000.09
2024-03-01T11:02:18.920Z,1000.14
2024-03-01T11:06:22.980Z,1000.20
2024-03-01T11:10:13.272Z,1000.19
2024-03-01T11:11:26.800Z,1000.15
2024-03-01T11:12:25.368Z,1000.19
2024-03-01T11:13:25.425Z,1000.18
2024-03-01T11:14:25.166Z,1000.18
2024-03-01T11:15:27.931Z,1000.12
2024-03-01T11:16:25.169Z,1000.12
2024-03-01T11:17:26.632Z,1000.10
2024-03-01T11:18:25.449Z,1000.09
2024-03-01T11:19:26.050Z,1000.14
2024-03-01T11:20:20.700Z,1000.14
2024-03-01T11:21:25.103Z,1000.14
2024-03-01T11:22:26.951Z,1000.09
2024-03-01T11:23:21.257Z,1000.07
2024-03-01T11:24:20.865Z,1000.07
2024-03-01T11:25:27.387Z,1000.02
2024-03-01T11:26:25.522Z,1000.06
2024-03-01T11:27:57.942Z,1000.03
2024-03-01T11:28:15.744Z,1000.06
2024-03-01T11:29:15.005Z,999.99
2024-03-01T11:30:14.041Z,1000.05
2024-03-01T11:31:15.094Z,1000.08
2024-03-01T11:32:18.436Z,999.99
2024-03-01T11:33:15.270Z,999.98
2024-03-01T11:34:14.653Z,1000.02
2024-03-01T11:35:14.836Z,1000.01
2024-03-01T11:36:15.563Z,1000.04
2024-03-01T11:37:14.930Z,1000.06
2024-03-01T11:38:15.713Z,1000.08
2024-03-01T11:39:15.036Z,1000.03
2024-03-01T11:40:15.218Z,1000.06
2024-03-01T11:41:15.279Z,1000.04
2024-03-01T11:42:15.555Z,1000.01
2024-03-01T11:43:15.485Z,1000.03
2024-03-01T11:44:15.853Z,999.98
2024-03-01T11:45:16.566Z,1000.04
2024-03-01T11:46:15.883Z,1000.03
2024-03-01T11:47:17.140Z,1000.01
2024-03-01T11:48:16.198Z,999.99
2024-03-01T11:49:16.378Z,1000.01
2024-03-01T11:50:16.433Z,999.97
2024-03-01T11:51:16.820Z,999.97
2024-03-01T11:52:16.825Z,999.93
2024-03-01T11:53:17.123Z,999.92
2024-03-01T11:54:17.772Z,999.92
2024-03-01T11:55:18.132Z,999.93
2024-03-01T11:56:17.313Z,999.95
2024-03-01T11:57:17.437Z,999.92
2024-03-01T11:58:17.554Z,999.88
2024-03-01T11:59:17.684Z,999.84
2024-03-01T12:00:19.542Z,999.87
2024-03-01T12:01:17.948Z,999.91
2024-03-01T12:02:18.174Z,999.89
2024-03-01T12:03:18.218Z,999.92
2024-03-01T12:04:19.276Z,999.91
2024-03-01T12:05:18.372Z,999.88
2024-03-01T12:06:21.511Z,999.91
2024-03-01T12:07:19.774Z,999.87
2024-03-01T12:08:18.824Z,999.85
2024-03-01T12:09:18.995Z,999.89
2024-03-01T12:10:20.349Z,999.83
2024-03-01T12:11:19.333Z,999.85
2024-03-01T12:12:20.274Z,999.80
2024-03-01T12:13:20.467Z,999.81
2024-03-01T12:14:21.537Z,999.82
2024-03-01T12:15:20.615Z,999.80
2024-03-01T12:16:25.827Z,999.79
2024-03-01T12:17:21.158Z,999.76
2024-03-01T12:18:21.942Z,999.73
2024-03-01T12:19:20.217Z,999.77
2024-03-01T12:20:20.255Z,999.71
2024-03-01T12:21:20.386Z,999.75
2024-03-01T12:22:20.906Z,999.79
2024-03-01T12:23:20.578Z,999.70
2024-03-01T12:24:20.994Z,999.73
2024-03-01T12:25:21.139Z,999.68
2024-03-01T12:26:21.025Z,999.74
2024-03-01T12:27:21.266Z,999.77
2024-03-01T12:28:21.291Z,999.75
2024-03-01T12:29:21.363Z,999.81
2024-03-01T12:30:21.507Z,999.78
2024-03-01T12:31:21.570Z,999.74
2024-03-01T12:32:21.690Z,999.86
2024-03-01T12:33:21.814Z,999.87
2024-03-01T12:34:21.951Z,999.88
2024-03-01T12:35:22.033Z,999.88
2024-03-01T12:36:25.011Z,999.90
2024-03-01T12:37:22.305Z,999.91
2024-03-01T12:38:22.419Z,999.87
2024-03-01T12:39:22.516Z,999.85
2024-03-01T12:40:22.693Z,999.86
2024-03-01T12:41:22.782Z,999.86
2024-03-01T12:42:22.859Z,999.83
2024-03-01T12:43:28.208Z,999.87
2024-03-01T12:44:24.131Z,999.84
2024-03-01T12:45:23.352Z,999.83
2024-03-01T12:46:23.479Z,999.82
2024-03-01T12:47:23.527Z,999.85
2024-03-01T12:48:23.742Z,999.82
2024-03-01T12:49:23.904Z,999.88
2024-03-01T12:50:23.910Z,999.85
2024-03-01T12:51:24.052Z,999.84
2024-03-01T12:52:24.176Z,999.84
2024-03-01T12:53:24.292Z,999.81
2024-03-01T12:54:24.444Z,999.82
2024-03-01T12:55:25.534Z,999.80
2024-03-01T12:56:24.614Z,999.73
2024-03-01T12:57:24.731Z,999.67
2024-03-01T12:58:25.008Z,999.72
2024-03-01T12:59:25.004Z,999.67
2024-03-01T13:00:25.247Z,999.73
2024-03-01T13:01:25.326Z,999.71
2024-03-01T13:02:25.424Z,999.72
2024-03-01T13:03:25.515Z,999.77
2024-03-01T13:04:25.684Z,999.75
2024-03-01T13:08:20.640Z,999.78
2024-03-01T13:09:33.877Z,999.77
2024-03-01T13:10:32.823Z,999.76
2024-03-01T13:11:33.061Z,999.73
2024-03-01T13:12:33.401Z,999.79
2024-03-01T13:13:35.036Z,999.78
2024-03-01T13:14:34.926Z,999.79
2024-03-01T13:15:34.613Z,999.82
2024-03-01T13:16:34.388Z,999.87
2024-03-01T13:17:37.496Z,999.87
2024-03-01T13:18:29.617Z,999.90
2024-03-01T13:19:34.242Z,999.89
2024-03-01T13:20:34.210Z,999.86
2024-03-01T13:21:35.308Z,999.87
2024-03-01T13:22:35.570Z,999.83
2024-03-01T13:23:39.197Z,999.82
2024-03-01T13:24:35.417Z,999.84
2024-03-01T13:25:35.639Z,999.87
2024-03-01T13:26:35.212Z,999.82
2024-03-01T13:27:35.820Z,999.78
2024-03-01T13:28:35.566Z,999.77
2024-03-01T13:32:27.839Z,999.75
2024-03-01T13:33:35.440Z,999.78
2024-03-01T13:34:28.210Z,999.75
2024-03-01T13:35:28.288Z,999.81
2024-03-01T13:36:28.374Z,999.81
2024-03-01T13:37:28.561Z,999.79
2024-03-01T13:38:28.635Z,999.74
2024-03-01T13:39:29.724Z,999.76
2024-03-01T13:40:28.944Z,999.72
2024-03-01T13:41:29.063Z,999.69
2024-03-01T13:42:32.775Z,999.62
2024-03-01T13:43:29.507Z,999.61
2024-03-01T13:44:29.504Z,999.59
2024-03-01T13:45:29.599Z,999.54
2024-03-01T13:46:29.748Z,999.59
2024-03-01T13:47:29.838Z,999.55
2024-03-01T13:48:30.058Z,999.60
2024-03-01T13:49:30.203Z,999.60
2024-03-01T13:50:30.235Z,999.54
2024-03-01T13:51:30.421Z,999.50
2024-03-01T13:52:30.617Z,999.52
2024-03-01T13:53:30.628Z,999.51
2024-03-01T13:54:30.735Z,999.45
2024-03-01T13:55:30.910Z,999.49
2024-03-01T13:56:31.047Z,999.48
2024-03-01T13:57:31.173Z,999.44
2024-03-01T13:58:31.359Z,999.45
2024-03-01T13:59:31.393Z,999.44
2024-03-01T14:00:31.540Z,999.44
2024-03-01T14:01:31.728Z,999.35
2024-03-01T14:02:31.770Z,999.36
2024-03-01T14:03:31.905Z,999.34
2024-03-01T14:04:32.097Z,999.30
2024-03-01T14:05:32.137Z,999.32
2024-03-01T14:06:32.242Z,999.23
2024-03-01T14:07:32.343Z,999.22
2024-03-01T14:08:32.504Z,999.20
2024-03-01T14:09:32.587Z,999.26
2024-03-01T14:10:32.812Z,999.22
2024-03-01T14:11:32.975Z,999.20
2024-03-01T14:12:33.002Z,999.22
2024-03-01T14:13:33.117Z,999.23
2024-03-01T14:14:33.183Z,999.28
2024-03-01T14:15:33.354Z,999.24
2024-03-01T14:16:33.498Z,999.25
2024-03-01T14:17:33.611Z,999.21
2024-03-01T14:18:33.704Z,999.20
2024-03-01T14:19:33.814Z,999.19
2024-03-01T14:20:33.935Z,999.22
2024-03-01T14:21:34.083Z,999.24
2024-03-01T14:22:34.176Z,999.23
2024-03-01T14:23:34.300Z,999.22
2024-03-01T14:24:34.452Z,999.21
2024-03-01T14:25:34.599Z,999.19
2024-03-01T14:26:34.700Z,999.29
2024-03-01T14:27:34.850Z,999.31
2024-03-01T14:28:34.970Z,999.29
2024-03-01T14:29:35.975Z,999.27
2024-03-01T14:30:35.157Z,999.28
2024-03-01T14:31:35.336Z,999.35
2024-03-01T14:32:35.539Z,999.32
2024-03-01T14:33:35.592Z,999.32
2024-03-01T14:34:35.740Z,999.34
2024-03-01T14:35:35.859Z,999.37
2024-03-01T14:36:35.935Z,999.38
2024-03-01T14:37:36.113Z,999.33
2024-03-01T14:38:36.268Z,999.35
2024-03-01T14:39:36.377Z,999.31
2024-03-01T14:40:36.480Z,999.29
2024-03-01T14:41:38.257Z,999.27
2024-03-01T14:42:36.701Z,999.28
2024-03-01T14:43:36.836Z,999.24
2024-03-01T14:44:37.864Z,999.27
2024-03-01T14:45:37.091Z,999.28
2024-03-01T14:46:37.410Z,999.27
2024-03-01T14:47:37.334Z,999.24
2024-03-01T14:48:37.401Z,999.37
2024-03-01T14:49:37.598Z,999.30
2024-03-01T14:50:37.634Z,999.35
2024-03-01T14:51:37.775Z,999.33
2024-03-01T14:52:38.761Z,999.26
2024-03-01T14:53:38.006Z,999.29
2024-03-01T14:54:38.130Z,999.30
2024-03-01T14:55:38.281Z,999.30
2024-03-01T14:56:38.368Z,999.31
2024-03-01T14:57:38.510Z,999.30
2024-03-01T14:58:38.758Z,999.32
2024-03-01T14:59:38.802Z,999.30
2024-03-01T15:00:38.922Z,999.28
2024-03-01T15:01:39.201Z,999.23
2024-03-01T15:02:39.226Z,999.23
2024-03-01T15:03:39.310Z,999.23
2024-03-01T15:04:41.820Z,999.29
2024-03-01T15:05:39.580Z,999.23
2024-03-01T15:06:39.721Z,999.22
2024-03-01T15:07:39.900Z,999.28
2024-03-01T15:08:40.047Z,999.26
2024-03-01T15:09:40.083Z,999.28
2024-03-01T15:10:42.229Z,999.29
2024-03-01T15:11:40.358Z,999.25
2024-03-01T15:12:40.729Z,999.24
2024-03-01T15:13:40.720Z,999.28
2024-03-01T15:14:40.711Z,999.26
2024-03-01T15:15:40.830Z,999.26
2024-03-01T15:16:45.060Z,999.28
2024-03-01T15:17:41.116Z,999.22
2024-03-01T15:18:41.171Z,999.23
2024-03-01T15:19:41.655Z,999.20
2024-03-01T15:20:41.469Z,999.25
2024-03-01T15:21:41.511Z,999.22
2024-03-01T15:22:44.014Z,999.19
2024-03-01T15:23:41.767Z,999.25
2024-03-01T15:24:41.958Z,999.21
2024-03-01T15:25:42.126Z,999.24
2024-03-01T15:26:42.132Z,999.25
2024-03-01T15:27:42.311Z,999.23
2024-03-01T15:28:43.872Z,999.23
2024-03-01T15:29:42.809Z,999.28
2024-03-01T15:30:42.642Z,999.16
2024-03-01T15:31:42.878Z,999.18
2024-03-01T15:32:43.939Z,999.24
2024-03-01T15:34:58.672Z,999.16
2024-03-01T15:35:58.784Z,999.21
2024-03-01T15:36:59.116Z,999.11
2024-03-01T15:37:59.050Z,999.15
2024-03-01T15:38:59.198Z,999.10
2024-03-01T15:39:59.368Z,999.05
2024-03-01T15:40:59.481Z,999.05
2024-03-01T15:41:59.571Z,999.12
2024-03-01T15:43:01.559Z,999.03
2024-03-01T15:43:59.732Z,999.01
2024-03-01T15:44:59.920Z,999.03
2024-03-01T15:46:00.078Z,999.04
2024-03-01T15:47:00.217Z,999.06
2024-03-01T15:48:00.278Z,999.00
2024-03-01T15:49:00.462Z,999.02
2024-03-01T15:50:00.549Z,999.00
2024-03-01T15:51:00.659Z,998.96
2024-03-01T15:52:00.864Z,998.98
2024-03-01T15:53:01.111Z,999.00
2024-03-01T15:54:01.075Z,998.97
2024-03-01T15:55:01.181Z,998.99
2024-03-01T15:56:01.314Z,998.91
2024-03-01T15:57:01.473Z,998.91
2024-03-01T15:58:01.737Z,998.90
2024-03-01T15:59:01.724Z,998.86
2024-03-01T16:00:01.907Z,998.87
2024-03-01T16:01:02.063Z,998.86
2024-03-01T16:02:02.183Z,998.83
2024-03-01T16:03:02.264Z,998.86
2024-03-01T16:04:02.434Z,998.78
2024-03-01T16:05:02.509Z,998.78
2024-03-01T16:06:02.588Z,998.75
2024-03-01T16:07:02.796Z,998.74
2024-03-01T16:08:02.893Z,998.76
2024-03-01T16:09:03.016Z,998.77
2024-03-01T16:10:03.110Z,998.76
2024-03-01T16:11:03.304Z,998.77
2024-03-01T16:12:03.354Z,998.78
2024-03-01T16:13:03.540Z,998.76
2024-03-01T16:14:03.610Z,998.79
2024-03-01T16:15:03.756Z,998.77
2024-03-01T16:16:03.967Z,998.76
2024-03-01T16:17:04.001Z,998.79
2024-03-01T16:29:03.223Z,998.70
2024-03-01T16:30:03.354Z,998.76
2024-03-01T16:31:03.699Z,998.76
2024-03-01T16:32:03.621Z,998.78
2024-03-01T16:33:03.901Z,998.75
2024-03-01T16:34:03.903Z,998.74
2024-03-01T16:35:04.069Z,998.73
2024-03-01T16:36:04.218Z,998.76
2024-03-01T16:37:04.325Z,998.74
2024-03-01T16:38:04.409Z,998.69
2024-03-01T16:39:04.524Z,998.75
2024-03-01T16:40:04.690Z,998.74
2024-03-01T16:41:04.774Z,998.77
2024-03-01T16:42:04.870Z,998.79
2024-03-01T16:43:05.044Z,998.75
2024-03-01T16:44:05.126Z,998.75
2024-03-01T16:45:06.184Z,998.76
2024-03-01T16:46:05.397Z,998.76
2024-03-01T16:47:05.518Z,998.81
2024-03-01T16:48:05.651Z,998.76
2024-03-01T16:49:05.937Z,998.79
2024-03-01T16:50:06.591Z,998.79
2024-03-01T16:51:05.975Z,998.79
2024-03-01T16:52:06.165Z,998.85
2024-03-01T16:53:06.250Z,998.84
2024-03-01T16:54:06.366Z,998.80
2024-03-01T16:55:06.561Z,998.81
2024-03-01T16:56:06.747Z,998.83
2024-03-01T16:57:06.747Z,998.86
2024-03-01T16:58:06.901Z,998.88
2024-03-01T16:59:07.045Z,998.85
2024-03-01T17:00:07.126Z,998.86
2024-03-01T17:01:07.262Z,998.87
2024-03-01T17:02:07.386Z,998.85
2024-03-01T17:03:07.595Z,998.84
2024-03-01T17:04:07.708Z,998.90
2024-03-01T17:05:07.691Z,998.91
2024-03-01T17:06:07.860Z,998.87
2024-03-01T17:07:08.007Z,998.91
2024-03-01T17:08:08.166Z,998.91
2024-03-01T17:09:08.268Z,998.93
2024-03-01T17:10:08.405Z,998.90
2024-03-01T17:11:08.642Z,998.87
2024-03-01T17:12:08.624Z,998.90
2024-03-01T17:13:08.815Z,998.90
2024-03-01T17:14:08.889Z,998.91
2024-03-01T17:15:09.055Z,998.93
2024-03-01T17:16:09.264Z,998.93
2024-03-01T17:17:09.332Z,998.93
2024-03-01T17:18:09.485Z,998.91
2024-03-01T17:19:12.290Z,998.92
2024-03-01T17:20:09.708Z,998.95
2024-03-01T17:21:09.819Z,998.93
2024-03-01T17:22:10.024Z,998.92
2024-03-01T17:23:10.093Z,998.95
2024-03-01T17:24:10.170Z,998.95
2024-03-01T17:25:10.352Z,998.98
2024-03-01T17:26:10.435Z,998.91
2024-03-01T17:27:10.636Z,998.90
2024-03-01T17:28:10.771Z,998.90
2024-03-01T17:29:10.827Z,998.93
2024-03-01T17:30:10.974Z,998.90
2024-03-01T17:31:11.151Z,998.94
2024-03-01T17:32:11.213Z,998.91
2024-03-01T17:33:11.440Z,998.94
2024-03-01T17:34:11.509Z,998.89
2024-03-01T17:35:11.600Z,998.87
2024-03-01T17:36:11.684Z,998.91
2024-03-01T17:37:11.879Z,998.90
2024-03-01T17:38:11.977Z,998.91
2024-03-01T17:39:12.153Z,998.92
2024-03-01T17:40:12.343Z,998.88
2024-03-01T17:41:12.369Z,998.93
2024-03-01T17:42:12.473Z,998.94
2024-03-01T17:43:12.666Z,998.94
2024-03-01T17:44:12.686Z,998.92
2024-03-01T17:45:12.874Z,998.98
2024-03-01T17:46:13.041Z,998.96
2024-03-01T17:47:13.108Z,998.98
2024-03-01T17:48:13.298Z,998.99
2024-03-01T17:49:13.402Z,998.98
2024-03-01T17:50:13.565Z,999.00
2024-03-01T17:51:13.681Z,999.03